Terminal Aerodrome Forecast
Issued by NWS

Home | Current Version | Previous Version | Text Only | Print | Product List | Glossary On
Versions: 1 2 3 4 5 6 7 8 9 10 11 12 13 14
000
FTUS45 KRIW 042000 AAA
TAFCOD
TAF AMD
KCOD 042042Z 0421/0518 VRB10G15KT P6SM VCTS BKN050CB BKN100
      TEMPO 0421/0422 -TSRA BKN050CB OVC080
     FM050200 VRB05KT P6SM FEW050 BKN090
     FM050600 20007KT P6SM SCT100 SCT250
      AMD LTD TO CLD VIS AND WIND=

USA.gov is the U.S. government's official web portal to all federal, state and local government web resources and services.